sensor_id;sensor_type;location;lat;lon;timestamp;P1;durP1;ratioP1;P2;durP2;ratioP2
51214;SDS011;63849;47.546;19.254;2023-02-26T00:01:18;6.07;;;5.15;;
51214;SDS011;63849;47.546;19.254;2023-02-26T00:03:50;6.15;;;5.13;;
51214;SDS011;63849;47.546;19.254;2023-02-26T00:06:17;6.30;;;4.53;;
51214;SDS011;63849;47.546;19.254;2023-02-26T00:08:43;5.07;;;4.20;;
51214;SDS011;63849;47.546;19.254;2023-02-26T00:11:09;6.65;;;4.85;;
51214;SDS011;63849;47.546;19.254;2023-02-26T00:13:36;5.70;;;4.95;;
51214;SDS011;63849;47.546;19.254;2023-02-26T00:16:05;5.22;;;4.72;;
51214;SDS011;63849;47.546;19.254;2023-02-26T00:18:56;6.47;;;5.72;;
51214;SDS011;63849;47.546;19.254;2023-02-26T00:21:24;6.47;;;4.90;;
51214;SDS011;63849;47.546;19.254;2023-02-26T00:23:51;6.18;;;5.30;;
51214;SDS011;63849;47.546;19.254;2023-02-26T00:26:17;6.07;;;4.20;;
51214;SDS011;63849;47.546;19.254;2023-02-26T00:28:44;5.30;;;4.80;;
51214;SDS011;63849;47.546;19.254;2023-02-26T00:31:11;5.47;;;4.18;;
51214;SDS011;63849;47.546;19.254;2023-02-26T00:33:39;5.70;;;4.75;;
51214;SDS011;63849;47.546;19.254;2023-02-26T00:39:14;4.80;;;4.27;;
51214;SDS011;63849;47.546;19.254;2023-02-26T00:42:05;4.93;;;4.43;;
51214;SDS011;63849;47.546;19.254;2023-02-26T00:44:31;5.35;;;4.60;;
51214;SDS011;63849;47.546;19.254;2023-02-26T00:47:16;5.20;;;4.70;;
51214;SDS011;63849;47.546;19.254;2023-02-26T00:52:38;10.40;;;6.68;;
51214;SDS011;63849;47.546;19.254;2023-02-26T00:55:10;7.22;;;5.20;;
51214;SDS011;63849;47.546;19.254;2023-02-26T00:57:36;7.70;;;4.47;;
51214;SDS011;63849;47.546;19.254;2023-02-26T01:00:03;6.97;;;5.05;;
51214;SDS011;63849;47.546;19.254;2023-02-26T01:02:31;7.25;;;5.75;;
51214;SDS011;63849;47.546;19.254;2023-02-26T01:04:59;6.30;;;5.03;;
51214;SDS011;63849;47.546;19.254;2023-02-26T01:07:27;4.95;;;4.43;;
51214;SDS011;63849;47.546;19.254;2023-02-26T01:09:57;4.78;;;4.30;;
51214;SDS011;63849;47.546;19.254;2023-02-26T01:12:23;5.30;;;4.68;;
51214;SDS011;63849;47.546;19.254;2023-02-26T01:14:52;5.30;;;4.57;;
51214;SDS011;63849;47.546;19.254;2023-02-26T01:17:28;5.05;;;4.45;;
51214;SDS011;63849;47.546;19.254;2023-02-26T01:20:13;7.32;;;4.63;;
51214;SDS011;63849;47.546;19.254;2023-02-26T01:25:15;5.22;;;4.72;;
51214;SDS011;63849;47.546;19.254;2023-02-26T01:30:13;7.57;;;5.35;;
51214;SDS011;63849;47.546;19.254;2023-02-26T01:32:47;6.82;;;5.20;;
51214;SDS011;63849;47.546;19.254;2023-02-26T01:35:36;5.60;;;4.93;;
51214;SDS011;63849;47.546;19.254;2023-02-26T01:43:38;7.07;;;5.60;;
51214;SDS011;63849;47.546;19.254;2023-02-26T01:49:16;5.70;;;5.10;;
51214;SDS011;63849;47.546;19.254;2023-02-26T01:51:44;5.25;;;4.75;;
51214;SDS011;63849;47.546;19.254;2023-02-26T01:54:11;5.10;;;4.60;;
51214;SDS011;63849;47.546;19.254;2023-02-26T01:56:38;4.80;;;4.20;;
51214;SDS011;63849;47.546;19.254;2023-02-26T01:59:10;5.70;;;4.38;;
51214;SDS011;63849;47.546;19.254;2023-02-26T02:01:40;4.15;;;3.75;;
51214;SDS011;63849;47.546;19.254;2023-02-26T02:04:09;5.43;;;4.43;;
51214;SDS011;63849;47.546;19.254;2023-02-26T02:06:38;5.00;;;4.50;;
51214;SDS011;63849;47.546;19.254;2023-02-26T02:09:05;4.63;;;4.22;;
51214;SDS011;63849;47.546;19.254;2023-02-26T02:11:32;5.05;;;4.20;;
51214;SDS011;63849;47.546;19.254;2023-02-26T02:17:02;4.55;;;3.85;;
51214;SDS011;63849;47.546;19.254;2023-02-26T02:19:47;6.70;;;4.25;;
51214;SDS011;63849;47.546;19.254;2023-02-26T02:36:37;4.13;;;3.72;;
51214;SDS011;63849;47.546;19.254;2023-02-26T02:39:28;4.57;;;3.92;;
51214;SDS011;63849;47.546;19.254;2023-02-26T02:44:34;4.93;;;3.85;;
51214;SDS011;63849;47.546;19.254;2023-02-26T02:47:03;4.30;;;3.70;;
51214;SDS011;63849;47.546;19.254;2023-02-26T02:49:36;4.25;;;3.78;;
51214;SDS011;63849;47.546;19.254;2023-02-26T02:52:15;3.67;;;3.38;;
51214;SDS011;63849;47.546;19.254;2023-02-26T02:54:50;5.18;;;3.78;;
51214;SDS011;63849;47.546;19.254;2023-02-26T02:57:29;4.63;;;3.72;;
51214;SDS011;63849;47.546;19.254;2023-02-26T03:00:00;4.32;;;3.90;;
51214;SDS011;63849;47.546;19.254;2023-02-26T03:02:51;5.00;;;4.07;;
51214;SDS011;63849;47.546;19.254;2023-02-26T03:05:19;5.07;;;3.92;;
51214;SDS011;63849;47.546;19.254;2023-02-26T03:07:55;4.10;;;3.67;;
51214;SDS011;63849;47.546;19.254;2023-02-26T03:10:27;4.28;;;3.70;;
51214;SDS011;63849;47.546;19.254;2023-02-26T03:12:53;5.10;;;3.63;;
51214;SDS011;63849;47.546;19.254;2023-02-26T03:15:23;4.30;;;3.70;;
51214;SDS011;63849;47.546;19.254;2023-02-26T03:18:20;5.60;;;3.88;;
51214;SDS011;63849;47.546;19.254;2023-02-26T03:21:15;3.90;;;3.60;;
51214;SDS011;63849;47.546;19.254;2023-02-26T03:29:39;5.10;;;3.80;;
51214;SDS011;63849;47.546;19.254;2023-02-26T03:35:12;5.38;;;4.57;;
51214;SDS011;63849;47.546;19.254;2023-02-26T03:37:43;7.22;;;4.25;;
51214;SDS011;63849;47.546;19.254;2023-02-26T03:40:19;4.97;;;4.03;;
51214;SDS011;63849;47.546;19.254;2023-02-26T03:42:56;5.38;;;4.70;;
51214;SDS011;63849;47.546;19.254;2023-02-26T03:45:39;4.90;;;3.97;;
51214;SDS011;63849;47.546;19.254;2023-02-26T03:48:07;7.20;;;4.90;;
51214;SDS011;63849;47.546;19.254;2023-02-26T03:50:46;5.80;;;4.32;;
51214;SDS011;63849;47.546;19.254;2023-02-26T03:53:16;5.20;;;4.25;;
51214;SDS011;63849;47.546;19.254;2023-02-26T03:55:47;5.55;;;4.50;;
51214;SDS011;63849;47.546;19.254;2023-02-26T03:58:27;5.65;;;4.50;;
51214;SDS011;63849;47.546;19.254;2023-02-26T04:00:56;4.50;;;3.90;;
51214;SDS011;63849;47.546;19.254;2023-02-26T04:03:28;4.38;;;3.80;;
51214;SDS011;63849;47.546;19.254;2023-02-26T04:06:02;4.55;;;4.10;;
51214;SDS011;63849;47.546;19.254;2023-02-26T04:08:29;5.47;;;4.90;;
51214;SDS011;63849;47.546;19.254;2023-02-26T04:10:57;4.20;;;3.80;;
51214;SDS011;63849;47.546;19.254;2023-02-26T04:13:31;9.88;;;6.35;;
51214;SDS011;63849;47.546;19.254;2023-02-26T04:15:57;9.98;;;7.40;;
51214;SDS011;63849;47.546;19.254;2023-02-26T04:18:23;6.88;;;5.22;;
51214;SDS011;63849;47.546;19.254;2023-02-26T04:20:50;9.55;;;6.10;;
51214;SDS011;63849;47.546;19.254;2023-02-26T04:23:15;6.25;;;5.32;;
51214;SDS011;63849;47.546;19.254;2023-02-26T04:25:43;6.88;;;5.18;;
51214;SDS011;63849;47.546;19.254;2023-02-26T04:28:09;6.90;;;5.50;;
51214;SDS011;63849;47.546;19.254;2023-02-26T04:30:35;6.15;;;5.43;;
51214;SDS011;63849;47.546;19.254;2023-02-26T04:33:01;6.40;;;5.60;;
51214;SDS011;63849;47.546;19.254;2023-02-26T04:35:27;6.38;;;5.68;;
51214;SDS011;63849;47.546;19.254;2023-02-26T04:37:53;6.53;;;5.82;;
51214;SDS011;63849;47.546;19.254;2023-02-26T04:40:19;8.35;;;6.32;;
51214;SDS011;63849;47.546;19.254;2023-02-26T04:42:48;9.15;;;5.97;;
51214;SDS011;63849;47.546;19.254;2023-02-26T04:45:14;6.15;;;5.55;;
51214;SDS011;63849;47.546;19.254;2023-02-26T04:47:39;7.13;;;5.88;;
51214;SDS011;63849;47.546;19.254;2023-02-26T04:50:06;6.68;;;5.07;;
51214;SDS011;63849;47.546;19.254;2023-02-26T04:52:32;7.75;;;5.93;;
51214;SDS011;63849;47.546;19.254;2023-02-26T04:54:58;6.55;;;5.85;;
51214;SDS011;63849;47.546;19.254;2023-02-26T04:57:24;7.40;;;5.80;;
51214;SDS011;63849;47.546;19.254;2023-02-26T04:59:50;9.15;;;6.30;;
51214;SDS011;63849;47.546;19.254;2023-02-26T05:02:16;6.90;;;6.20;;
51214;SDS011;63849;47.546;19.254;2023-02-26T05:04:41;8.13;;;6.35;;
51214;SDS011;63849;47.546;19.254;2023-02-26T05:07:07;9.25;;;7.32;;
51214;SDS011;63849;47.546;19.254;2023-02-26T05:09:33;7.80;;;6.65;;
51214;SDS011;63849;47.546;19.254;2023-02-26T05:14:29;8.63;;;6.93;;
51214;SDS011;63849;47.546;19.254;2023-02-26T05:16:55;9.20;;;7.00;;
51214;SDS011;63849;47.546;19.254;2023-02-26T05:19:20;8.43;;;7.28;;
51214;SDS011;63849;47.546;19.254;2023-02-26T05:21:46;8.30;;;6.75;;
51214;SDS011;63849;47.546;19.254;2023-02-26T05:24:13;7.88;;;7.00;;
51214;SDS011;63849;47.546;19.254;2023-02-26T05:26:40;9.73;;;6.75;;
51214;SDS011;63849;47.546;19.254;2023-02-26T05:29:05;7.45;;;6.65;;
51214;SDS011;63849;47.546;19.254;2023-02-26T05:31:31;7.18;;;6.45;;
51214;SDS011;63849;47.546;19.254;2023-02-26T05:33:57;9.30;;;7.53;;
51214;SDS011;63849;47.546;19.254;2023-02-26T05:36:23;10.80;;;8.63;;
51214;SDS011;63849;47.546;19.254;2023-02-26T05:38:49;9.20;;;7.55;;
51214;SDS011;63849;47.546;19.254;2023-02-26T05:41:15;7.20;;;6.50;;
51214;SDS011;63849;47.546;19.254;2023-02-26T05:43:40;7.63;;;6.82;;
51214;SDS011;63849;47.546;19.254;2023-02-26T05:46:06;7.72;;;6.70;;
51214;SDS011;63849;47.546;19.254;2023-02-26T05:48:32;7.43;;;6.63;;
51214;SDS011;63849;47.546;19.254;2023-02-26T05:50:58;8.13;;;7.32;;
51214;SDS011;63849;47.546;19.254;2023-02-26T05:53:24;9.18;;;7.78;;
51214;SDS011;63849;47.546;19.254;2023-02-26T05:55:51;10.23;;;7.82;;
51214;SDS011;63849;47.546;19.254;2023-02-26T05:58:18;9.55;;;8.07;;
51214;SDS011;63849;47.546;19.254;2023-02-26T06:00:44;9.25;;;7.82;;
51214;SDS011;63849;47.546;19.254;2023-02-26T06:03:09;9.45;;;8.05;;
51214;SDS011;63849;47.546;19.254;2023-02-26T06:05:35;9.32;;;7.28;;
51214;SDS011;63849;47.546;19.254;2023-02-26T06:08:02;9.48;;;7.72;;
51214;SDS011;63849;47.546;19.254;2023-02-26T06:10:29;8.00;;;7.00;;
51214;SDS011;63849;47.546;19.254;2023-02-26T06:12:55;7.90;;;7.10;;
51214;SDS011;63849;47.546;19.254;2023-02-26T06:15:21;7.70;;;6.93;;
51214;SDS011;63849;47.546;19.254;2023-02-26T06:17:47;9.00;;;6.95;;
51214;SDS011;63849;47.546;19.254;2023-02-26T06:20:13;8.00;;;7.13;;
51214;SDS011;63849;47.546;19.254;2023-02-26T06:22:39;9.23;;;7.15;;
51214;SDS011;63849;47.546;19.254;2023-02-26T06:25:05;7.97;;;6.95;;
51214;SDS011;63849;47.546;19.254;2023-02-26T06:27:31;8.23;;;6.68;;
51214;SDS011;63849;47.546;19.254;2023-02-26T06:29:57;7.65;;;6.85;;
51214;SDS011;63849;47.546;19.254;2023-02-26T06:32:22;8.52;;;6.63;;
51214;SDS011;63849;47.546;19.254;2023-02-26T06:34:48;8.27;;;6.70;;
51214;SDS011;63849;47.546;19.254;2023-02-26T06:37:14;9.02;;;7.28;;
51214;SDS011;63849;47.546;19.254;2023-02-26T06:39:40;7.80;;;7.00;;
51214;SDS011;63849;47.546;19.254;2023-02-26T06:42:06;8.20;;;6.90;;
51214;SDS011;63849;47.546;19.254;2023-02-26T06:44:32;8.45;;;7.10;;
51214;SDS011;63849;47.546;19.254;2023-02-26T06:46:57;9.00;;;7.85;;
51214;SDS011;63849;47.546;19.254;2023-02-26T06:49:23;10.70;;;8.20;;
51214;SDS011;63849;47.546;19.254;2023-02-26T06:51:49;9.52;;;8.30;;
51214;SDS011;63849;47.546;19.254;2023-02-26T06:54:15;10.13;;;7.63;;
51214;SDS011;63849;47.546;19.254;2023-02-26T06:56:41;11.63;;;8.75;;
51214;SDS011;63849;47.546;19.254;2023-02-26T06:59:07;8.70;;;7.80;;
51214;SDS011;63849;47.546;19.254;2023-02-26T07:01:32;8.90;;;7.63;;
51214;SDS011;63849;47.546;19.254;2023-02-26T07:03:58;8.95;;;7.50;;
51214;SDS011;63849;47.546;19.254;2023-02-26T07:06:24;8.70;;;7.80;;
51214;SDS011;63849;47.546;19.254;2023-02-26T07:08:51;9.43;;;7.95;;
51214;SDS011;63849;47.546;19.254;2023-02-26T07:11:17;8.68;;;7.78;;
51214;SDS011;63849;47.546;19.254;2023-02-26T07:13:42;9.82;;;7.65;;
51214;SDS011;63849;47.546;19.254;2023-02-26T07:16:08;8.93;;;7.65;;
51214;SDS011;63849;47.546;19.254;2023-02-26T07:18:34;9.68;;;7.82;;
51214;SDS011;63849;47.546;19.254;2023-02-26T07:21:01;9.68;;;8.65;;
51214;SDS011;63849;47.546;19.254;2023-02-26T07:23:28;10.23;;;7.65;;
51214;SDS011;63849;47.546;19.254;2023-02-26T07:25:54;9.50;;;7.47;;
51214;SDS011;63849;47.546;19.254;2023-02-26T07:28:21;8.95;;;7.82;;
51214;SDS011;63849;47.546;19.254;2023-02-26T07:30:48;8.90;;;7.57;;
51214;SDS011;63849;47.546;19.254;2023-02-26T07:33:14;8.25;;;6.88;;
51214;SDS011;63849;47.546;19.254;2023-02-26T07:35:39;7.70;;;6.88;;
51214;SDS011;63849;47.546;19.254;2023-02-26T07:38:05;7.45;;;6.28;;
51214;SDS011;63849;47.546;19.254;2023-02-26T07:40:31;6.95;;;6.25;;
51214;SDS011;63849;47.546;19.254;2023-02-26T07:42:57;7.68;;;6.82;;
51214;SDS011;63849;47.546;19.254;2023-02-26T07:45:23;9.45;;;8.05;;
51214;SDS011;63849;47.546;19.254;2023-02-26T07:47:52;12.02;;;10.65;;
51214;SDS011;63849;47.546;19.254;2023-02-26T07:50:18;7.10;;;6.25;;
51214;SDS011;63849;47.546;19.254;2023-02-26T07:52:45;7.07;;;6.00;;
51214;SDS011;63849;47.546;19.254;2023-02-26T07:55:11;7.57;;;5.97;;
51214;SDS011;63849;47.546;19.254;2023-02-26T07:57:37;6.22;;;5.63;;
51214;SDS011;63849;47.546;19.254;2023-02-26T08:00:04;6.30;;;5.70;;
51214;SDS011;63849;47.546;19.254;2023-02-26T08:02:30;6.70;;;6.03;;
51214;SDS011;63849;47.546;19.254;2023-02-26T08:04:56;6.97;;;5.63;;
51214;SDS011;63849;47.546;19.254;2023-02-26T08:07:22;7.00;;;6.05;;
51214;SDS011;63849;47.546;19.254;2023-02-26T08:09:48;6.90;;;5.93;;
51214;SDS011;63849;47.546;19.254;2023-02-26T08:12:14;6.15;;;5.43;;
51214;SDS011;63849;47.546;19.254;2023-02-26T08:14:39;6.32;;;5.72;;
51214;SDS011;63849;47.546;19.254;2023-02-26T08:17:06;5.20;;;4.75;;
51214;SDS011;63849;47.546;19.254;2023-02-26T08:19:33;7.60;;;5.25;;
51214;SDS011;63849;47.546;19.254;2023-02-26T08:22:01;7.63;;;5.90;;
51214;SDS011;63849;47.546;19.254;2023-02-26T08:24:27;5.75;;;4.85;;
51214;SDS011;63849;47.546;19.254;2023-02-26T08:26:53;7.32;;;5.85;;
51214;SDS011;63849;47.546;19.254;2023-02-26T08:29:19;8.57;;;6.35;;
51214;SDS011;63849;47.546;19.254;2023-02-26T08:31:45;9.20;;;6.35;;
51214;SDS011;63849;47.546;19.254;2023-02-26T08:34:11;7.80;;;6.22;;
51214;SDS011;63849;47.546;19.254;2023-02-26T08:36:40;6.55;;;5.50;;
51214;SDS011;63849;47.546;19.254;2023-02-26T08:39:06;7.50;;;6.40;;
51214;SDS011;63849;47.546;19.254;2023-02-26T08:41:32;5.95;;;5.28;;
51214;SDS011;63849;47.546;19.254;2023-02-26T08:44:00;7.80;;;6.30;;
51214;SDS011;63849;47.546;19.254;2023-02-26T08:46:26;10.93;;;6.63;;
51214;SDS011;63849;47.546;19.254;2023-02-26T08:48:52;6.95;;;5.60;;
51214;SDS011;63849;47.546;19.254;2023-02-26T08:51:19;4.15;;;3.75;;
51214;SDS011;63849;47.546;19.254;2023-02-26T08:53:46;5.72;;;4.80;;
51214;SDS011;63849;47.546;19.254;2023-02-26T08:56:13;6.45;;;4.95;;
51214;SDS011;63849;47.546;19.254;2023-02-26T08:58:39;5.30;;;4.68;;
51214;SDS011;63849;47.546;19.254;2023-02-26T09:01:05;6.18;;;5.05;;
51214;SDS011;63849;47.546;19.254;2023-02-26T09:03:31;6.68;;;4.78;;
51214;SDS011;63849;47.546;19.254;2023-02-26T09:05:57;8.80;;;5.20;;
51214;SDS011;63849;47.546;19.254;2023-02-26T09:08:22;6.03;;;5.22;;
51214;SDS011;63849;47.546;19.254;2023-02-26T09:10:48;6.25;;;4.95;;
51214;SDS011;63849;47.546;19.254;2023-02-26T09:13:14;5.20;;;4.72;;
51214;SDS011;63849;47.546;19.254;2023-02-26T09:15:40;8.13;;;5.85;;
51214;SDS011;63849;47.546;19.254;2023-02-26T09:18:06;6.20;;;5.15;;
51214;SDS011;63849;47.546;19.254;2023-02-26T09:20:39;6.07;;;5.22;;
51214;SDS011;63849;47.546;19.254;2023-02-26T09:23:06;7.80;;;5.35;;
51214;SDS011;63849;47.546;19.254;2023-02-26T09:25:32;7.03;;;4.95;;
51214;SDS011;63849;47.546;19.254;2023-02-26T09:27:58;5.75;;;5.20;;
51214;SDS011;63849;47.546;19.254;2023-02-26T09:30:24;5.13;;;4.55;;
51214;SDS011;63849;47.546;19.254;2023-02-26T09:32:49;5.05;;;4.55;;
51214;SDS011;63849;47.546;19.254;2023-02-26T09:35:16;7.28;;;4.85;;
51214;SDS011;63849;47.546;19.254;2023-02-26T09:37:41;6.95;;;5.50;;
51214;SDS011;63849;47.546;19.254;2023-02-26T09:40:09;8.30;;;5.85;;
51214;SDS011;63849;47.546;19.254;2023-02-26T09:45:40;7.15;;;5.97;;
51214;SDS011;63849;47.546;19.254;2023-02-26T09:48:07;6.55;;;5.05;;
51214;SDS011;63849;47.546;19.254;2023-02-26T09:50:41;8.13;;;5.53;;
51214;SDS011;63849;47.546;19.254;2023-02-26T09:56:03;7.93;;;6.97;;
51214;SDS011;63849;47.546;19.254;2023-02-26T09:58:33;8.38;;;5.80;;
51214;SDS011;63849;47.546;19.254;2023-02-26T10:12:50;21.98;;;12.57;;
51214;SDS011;63849;47.546;19.254;2023-02-26T10:15:22;7.90;;;6.32;;
51214;SDS011;63849;47.546;19.254;2023-02-26T10:18:21;6.47;;;5.22;;
51214;SDS011;63849;47.546;19.254;2023-02-26T10:20:58;6.88;;;5.28;;
51214;SDS011;63849;47.546;19.254;2023-02-26T10:23:43;8.38;;;6.22;;
51214;SDS011;63849;47.546;19.254;2023-02-26T10:31:32;9.52;;;8.48;;
51214;SDS011;63849;47.546;19.254;2023-02-26T10:37:03;10.27;;;9.18;;
51214;SDS011;63849;47.546;19.254;2023-02-26T10:39:50;11.48;;;9.55;;
51214;SDS011;63849;47.546;19.254;2023-02-26T10:42:27;11.40;;;9.93;;
51214;SDS011;63849;47.546;19.254;2023-02-26T10:48:03;10.43;;;8.25;;
51214;SDS011;63849;47.546;19.254;2023-02-26T10:50:37;11.45;;;9.35;;
51214;SDS011;63849;47.546;19.254;2023-02-26T10:53:12;15.80;;;13.93;;
51214;SDS011;63849;47.546;19.254;2023-02-26T10:58:21;22.73;;;14.82;;
51214;SDS011;63849;47.546;19.254;2023-02-26T11:00:49;27.38;;;16.85;;
51214;SDS011;63849;47.546;19.254;2023-02-26T11:03:29;15.50;;;12.65;;
51214;SDS011;63849;47.546;19.254;2023-02-26T11:06:04;19.55;;;14.00;;
51214;SDS011;63849;47.546;19.254;2023-02-26T11:08:44;13.73;;;12.32;;
51214;SDS011;63849;47.546;19.254;2023-02-26T11:14:05;13.40;;;12.13;;
51214;SDS011;63849;47.546;19.254;2023-02-26T11:16:32;17.10;;;13.48;;
51214;SDS011;63849;47.546;19.254;2023-02-26T11:18:59;22.17;;;16.05;;
51214;SDS011;63849;47.546;19.254;2023-02-26T11:21:29;31.55;;;19.13;;
51214;SDS011;63849;47.546;19.254;2023-02-26T11:24:13;25.42;;;18.50;;
51214;SDS011;63849;47.546;19.254;2023-02-26T11:27:00;17.25;;;12.80;;
51214;SDS011;63849;47.546;19.254;2023-02-26T11:29:32;15.23;;;13.63;;
51214;SDS011;63849;47.546;19.254;2023-02-26T11:32:03;26.00;;;17.30;;
51214;SDS011;63849;47.546;19.254;2023-02-26T11:34:30;21.73;;;16.98;;
51214;SDS011;63849;47.546;19.254;2023-02-26T11:36:57;17.55;;;14.88;;
51214;SDS011;63849;47.546;19.254;2023-02-26T11:39:25;19.50;;;15.00;;
51214;SDS011;63849;47.546;19.254;2023-02-26T11:41:56;22.55;;;18.63;;
51214;SDS011;63849;47.546;19.254;2023-02-26T11:47:00;20.30;;;16.17;;
51214;SDS011;63849;47.546;19.254;2023-02-26T11:49:29;14.75;;;13.25;;
51214;SDS011;63849;47.546;19.254;2023-02-26T11:54:47;17.08;;;14.13;;
51214;SDS011;63849;47.546;19.254;2023-02-26T11:57:19;14.48;;;13.07;;
51214;SDS011;63849;47.546;19.254;2023-02-26T11:59:50;16.27;;;14.57;;
51214;SDS011;63849;47.546;19.254;2023-02-26T12:02:19;19.73;;;15.10;;
51214;SDS011;63849;47.546;19.254;2023-02-26T12:04:51;14.23;;;12.82;;
51214;SDS011;63849;47.546;19.254;2023-02-26T12:07:19;18.48;;;14.07;;
51214;SDS011;63849;47.546;19.254;2023-02-26T12:09:46;17.85;;;14.38;;
51214;SDS011;63849;47.546;19.254;2023-02-26T12:12:21;14.38;;;12.45;;
51214;SDS011;63849;47.546;19.254;2023-02-26T12:15:19;11.65;;;10.40;;
51214;SDS011;63849;47.546;19.254;2023-02-26T12:50:02;11.38;;;10.18;;
51214;SDS011;63849;47.546;19.254;2023-02-26T13:09:49;15.90;;;13.20;;
51214;SDS011;63849;47.546;19.254;2023-02-26T13:12:38;17.05;;;14.15;;
51214;SDS011;63849;47.546;19.254;2023-02-26T13:15:24;17.10;;;14.63;;
51214;SDS011;63849;47.546;19.254;2023-02-26T13:20:44;13.10;;;9.50;;
51214;SDS011;63849;47.546;19.254;2023-02-26T13:23:20;10.55;;;7.18;;
51214;SDS011;63849;47.546;19.254;2023-02-26T13:25:50;9.45;;;7.53;;
51214;SDS011;63849;47.546;19.254;2023-02-26T13:31:17;10.77;;;6.07;;
51214;SDS011;63849;47.546;19.254;2023-02-26T13:33:46;6.70;;;5.40;;
51214;SDS011;63849;47.546;19.254;2023-02-26T13:36:14;7.22;;;5.75;;
51214;SDS011;63849;47.546;19.254;2023-02-26T13:41:42;7.65;;;5.88;;
51214;SDS011;63849;47.546;19.254;2023-02-26T13:58:33;7.82;;;4.82;;
51214;SDS011;63849;47.546;19.254;2023-02-26T14:03:46;8.07;;;5.82;;
51214;SDS011;63849;47.546;19.254;2023-02-26T14:08:51;6.85;;;4.95;;
51214;SDS011;63849;47.546;19.254;2023-02-26T14:19:36;6.88;;;5.68;;
51214;SDS011;63849;47.546;19.254;2023-02-26T14:24:44;8.68;;;6.05;;
51214;SDS011;63849;47.546;19.254;2023-02-26T14:29:57;57.70;;;24.42;;
51214;SDS011;63849;47.546;19.254;2023-02-26T14:35:14;14.27;;;8.60;;
51214;SDS011;63849;47.546;19.254;2023-02-26T14:40:42;20.08;;;11.43;;
51214;SDS011;63849;47.546;19.254;2023-02-26T14:43:16;8.05;;;5.80;;
51214;SDS011;63849;47.546;19.254;2023-02-26T14:45:55;8.70;;;6.22;;
51214;SDS011;63849;47.546;19.254;2023-02-26T14:48:21;14.98;;;8.75;;
51214;SDS011;63849;47.546;19.254;2023-02-26T14:54:03;9.60;;;6.03;;
51214;SDS011;63849;47.546;19.254;2023-02-26T14:59:52;11.25;;;7.78;;
51214;SDS011;63849;47.546;19.254;2023-02-26T15:02:46;15.15;;;10.40;;
51214;SDS011;63849;47.546;19.254;2023-02-26T15:16:50;31.48;;;16.42;;
51214;SDS011;63849;47.546;19.254;2023-02-26T15:25:34;16.52;;;8.93;;
51214;SDS011;63849;47.546;19.254;2023-02-26T15:28:03;21.88;;;12.38;;
51214;SDS011;63849;47.546;19.254;2023-02-26T15:30:31;21.20;;;12.82;;
51214;SDS011;63849;47.546;19.254;2023-02-26T15:32:59;37.10;;;19.88;;
51214;SDS011;63849;47.546;19.254;2023-02-26T15:35:28;20.40;;;13.77;;
51214;SDS011;63849;47.546;19.254;2023-02-26T15:37:56;26.73;;;14.77;;
51214;SDS011;63849;47.546;19.254;2023-02-26T15:40:26;11.25;;;8.98;;
51214;SDS011;63849;47.546;19.254;2023-02-26T15:42:54;17.85;;;11.30;;
51214;SDS011;63849;47.546;19.254;2023-02-26T15:45:26;24.15;;;13.50;;
51214;SDS011;63849;47.546;19.254;2023-02-26T15:47:57;17.95;;;11.68;;
51214;SDS011;63849;47.546;19.254;2023-02-26T15:50:30;22.85;;;12.95;;
51214;SDS011;63849;47.546;19.254;2023-02-26T15:55:37;27.92;;;15.50;;
51214;SDS011;63849;47.546;19.254;2023-02-26T15:58:36;24.10;;;19.58;;
51214;SDS011;63849;47.546;19.254;2023-02-26T16:01:13;25.67;;;13.15;;
51214;SDS011;63849;47.546;19.254;2023-02-26T16:03:41;17.42;;;9.82;;
51214;SDS011;63849;47.546;19.254;2023-02-26T16:06:10;10.35;;;8.80;;
51214;SDS011;63849;47.546;19.254;2023-02-26T16:08:49;12.38;;;8.45;;
51214;SDS011;63849;47.546;19.254;2023-02-26T16:11:15;16.65;;;10.85;;
51214;SDS011;63849;47.546;19.254;2023-02-26T16:13:45;13.52;;;9.73;;
51214;SDS011;63849;47.546;19.254;2023-02-26T16:16:16;12.30;;;9.13;;
51214;SDS011;63849;47.546;19.254;2023-02-26T16:21:18;20.33;;;11.50;;
51214;SDS011;63849;47.546;19.254;2023-02-26T16:23:51;12.57;;;8.40;;
51214;SDS011;63849;47.546;19.254;2023-02-26T16:26:21;19.75;;;11.25;;
51214;SDS011;63849;47.546;19.254;2023-02-26T16:28:57;11.27;;;8.07;;
51214;SDS011;63849;47.546;19.254;2023-02-26T16:31:29;19.25;;;11.40;;
51214;SDS011;63849;47.546;19.254;2023-02-26T16:36:28;17.83;;;10.65;;
51214;SDS011;63849;47.546;19.254;2023-02-26T16:41:33;15.02;;;9.75;;
51214;SDS011;63849;47.546;19.254;2023-02-26T16:44:04;14.98;;;10.20;;
51214;SDS011;63849;47.546;19.254;2023-02-26T16:46:55;18.88;;;11.73;;
51214;SDS011;63849;47.546;19.254;2023-02-26T16:49:32;28.50;;;16.85;;
51214;SDS011;63849;47.546;19.254;2023-02-26T16:52:00;36.40;;;20.80;;
51214;SDS011;63849;47.546;19.254;2023-02-26T16:54:27;38.72;;;21.45;;
51214;SDS011;63849;47.546;19.254;2023-02-26T16:56:56;31.33;;;18.85;;
51214;SDS011;63849;47.546;19.254;2023-02-26T16:59:45;24.25;;;15.18;;
51214;SDS011;63849;47.546;19.254;2023-02-26T17:02:21;16.33;;;11.32;;
51214;SDS011;63849;47.546;19.254;2023-02-26T17:04:58;11.57;;;8.18;;
51214;SDS011;63849;47.546;19.254;2023-02-26T17:10:07;22.17;;;12.60;;
51214;SDS011;63849;47.546;19.254;2023-02-26T17:12:52;17.65;;;12.65;;
51214;SDS011;63849;47.546;19.254;2023-02-26T17:15:29;17.25;;;11.88;;
51214;SDS011;63849;47.546;19.254;2023-02-26T17:17:59;20.38;;;12.82;;
51214;SDS011;63849;47.546;19.254;2023-02-26T17:20:25;33.72;;;21.13;;
51214;SDS011;63849;47.546;19.254;2023-02-26T17:22:54;40.92;;;26.42;;
51214;SDS011;63849;47.546;19.254;2023-02-26T17:25:21;33.80;;;22.38;;
51214;SDS011;63849;47.546;19.254;2023-02-26T17:27:49;31.58;;;22.00;;
51214;SDS011;63849;47.546;19.254;2023-02-26T17:30:19;28.75;;;19.05;;
51214;SDS011;63849;47.546;19.254;2023-02-26T17:32:53;31.77;;;21.60;;
51214;SDS011;63849;47.546;19.254;2023-02-26T17:35:19;34.40;;;23.35;;
51214;SDS011;63849;47.546;19.254;2023-02-26T17:37:45;35.72;;;23.75;;
51214;SDS011;63849;47.546;19.254;2023-02-26T17:40:16;24.40;;;18.15;;
51214;SDS011;63849;47.546;19.254;2023-02-26T17:42:55;23.55;;;15.88;;
51214;SDS011;63849;47.546;19.254;2023-02-26T17:45:24;22.77;;;15.80;;
51214;SDS011;63849;47.546;19.254;2023-02-26T17:47:49;18.52;;;14.23;;
51214;SDS011;63849;47.546;19.254;2023-02-26T17:53:01;25.73;;;17.38;;
51214;SDS011;63849;47.546;19.254;2023-02-26T17:55:28;25.17;;;17.00;;
51214;SDS011;63849;47.546;19.254;2023-02-26T17:57:54;28.58;;;18.65;;
51214;SDS011;63849;47.546;19.254;2023-02-26T18:00:21;27.20;;;18.85;;
51214;SDS011;63849;47.546;19.254;2023-02-26T18:02:47;31.75;;;18.48;;
51214;SDS011;63849;47.546;19.254;2023-02-26T18:05:15;28.73;;;19.60;;
51214;SDS011;63849;47.546;19.254;2023-02-26T18:07:41;29.33;;;19.35;;
51214;SDS011;63849;47.546;19.254;2023-02-26T18:10:10;32.28;;;20.60;;
51214;SDS011;63849;47.546;19.254;2023-02-26T18:12:41;30.45;;;19.88;;
51214;SDS011;63849;47.546;19.254;2023-02-26T18:15:07;34.03;;;20.73;;
51214;SDS011;63849;47.546;19.254;2023-02-26T18:17:35;33.38;;;20.80;;
51214;SDS011;63849;47.546;19.254;2023-02-26T18:20:02;34.13;;;23.33;;
51214;SDS011;63849;47.546;19.254;2023-02-26T18:22:31;39.70;;;23.90;;
51214;SDS011;63849;47.546;19.254;2023-02-26T18:24:57;42.10;;;27.98;;
51214;SDS011;63849;47.546;19.254;2023-02-26T18:27:24;30.30;;;20.55;;
51214;SDS011;63849;47.546;19.254;2023-02-26T18:29:51;32.13;;;20.60;;